Ashburn Park, Illinois
Current Conditions -  °F | °C
As of 11:53 AM on Sunday 21 Dec 2014 (Local Time) from KMDW Reporting Station
Overcast Overcast  
Wind Chill: -2°   Ceiling: 2700
Heat Index:   Visibility: 10mi
Dew Point: -2°   Wind: 10mph
Humidity: 73%   Direction: 170°S
Pressure: 30.16"   Gusts: NA
Location:  41.7473°N, 87.7132°W
Report Text: KMDW 211753Z 17009KT 10SM OVC027 02/M02 A3016 RMK AO2 SLP224 T00221022 10022 20011 58017 $
Loading
Personal Weather Stations






























Interactive Weather Map New forecast layout! Learn more

10-Day Weather Forecast

Advertisements
Track Severe Weather on mobile